createdAt,value
2019-05-29T00:02:07.951Z,12.30
2019-05-29T00:04:36.921Z,12.30
2019-05-29T00:07:06.138Z,12.30
2019-05-29T00:09:35.015Z,12.30
2019-05-29T00:12:03.934Z,12.30
2019-05-29T00:14:32.808Z,12.20
2019-05-29T00:17:01.578Z,12.10
2019-05-29T00:19:30.584Z,12.00
2019-05-29T00:21:59.425Z,12.00
2019-05-29T00:24:28.213Z,11.90
2019-05-29T00:26:56.972Z,11.80
2019-05-29T00:31:54.063Z,11.70
2019-05-29T00:34:22.820Z,11.60
2019-05-29T00:36:51.578Z,11.60
2019-05-29T00:39:20.329Z,11.50
2019-05-29T00:41:49.094Z,11.50
2019-05-29T00:44:31.553Z,11.30
2019-05-29T00:46:48.418Z,11.20
2019-05-29T00:49:18.056Z,11.00
2019-05-29T00:51:47.023Z,10.90
2019-05-29T00:54:16.552Z,10.80
2019-05-29T00:56:45.465Z,10.80
2019-05-29T00:59:15.107Z,10.80
2019-05-29T01:01:43.958Z,10.70
2019-05-29T01:04:13.629Z,10.60
2019-05-29T01:06:42.544Z,10.60
2019-05-29T01:09:12.311Z,10.50
2019-05-29T01:11:41.336Z,10.50
2019-05-29T01:14:11.049Z,10.40
2019-05-29T01:16:40.014Z,10.30
2019-05-29T01:19:27.116Z,10.20
2019-05-29T01:21:56.629Z,10.10
2019-05-29T01:26:53.892Z,10.00
2019-05-29T01:29:23.442Z,9.90
2019-05-29T01:31:52.468Z,9.90
2019-05-29T01:34:22.007Z,9.90
2019-05-29T01:36:50.846Z,9.80
2019-05-29T01:39:19.848Z,9.80
2019-05-29T01:41:48.683Z,9.80
2019-05-29T01:44:17.489Z,9.70
2019-05-29T01:46:46.285Z,9.70
2019-05-29T01:49:16.059Z,9.70
2019-05-29T01:51:44.917Z,9.60
2019-05-29T01:54:13.688Z,9.60
2019-05-29T01:56:42.445Z,9.50
2019-05-29T01:59:11.201Z,9.50
2019-05-29T02:01:39.968Z,9.40
2019-05-29T02:04:09.044Z,9.30
2019-05-29T02:06:37.821Z,9.30
2019-05-29T02:09:06.976Z,9.20
2019-05-29T02:11:35.889Z,9.10
2019-05-29T02:14:04.932Z,9.10
2019-05-29T02:16:33.768Z,9.00
2019-05-29T02:19:02.630Z,9.00
2019-05-29T02:21:31.494Z,8.90
2019-05-29T02:26:28.559Z,8.90
2019-05-29T02:28:57.314Z,8.80
2019-05-29T02:31:28.416Z,8.80
2019-05-29T02:33:56.552Z,8.80
2019-05-29T02:36:27.144Z,8.70
2019-05-29T02:38:55.880Z,8.60
2019-05-29T02:43:54.640Z,8.60
2019-05-29T02:46:23.938Z,8.60
2019-05-29T02:48:54.032Z,8.50
2019-05-29T02:51:24.213Z,8.50
2019-05-29T02:56:22.901Z,8.40
2019-05-29T02:58:52.549Z,8.40
2019-05-29T03:01:22.130Z,8.30
2019-05-29T03:03:52.146Z,8.30
2019-05-29T03:06:22.311Z,8.20
2019-05-29T03:08:51.880Z,8.20
2019-05-29T03:11:20.642Z,8.20
2019-05-29T03:13:49.456Z,8.20
2019-05-29T03:16:18.218Z,8.20
2019-05-29T03:18:47.058Z,8.20
2019-05-29T03:21:15.812Z,8.10
2019-05-29T03:23:44.688Z,8.10
2019-05-29T03:26:13.436Z,7.90
2019-05-29T03:28:42.288Z,7.90
2019-05-29T03:31:11.306Z,7.90
2019-05-29T03:36:10.152Z,7.70
2019-05-29T03:38:38.985Z,7.70
2019-05-29T03:43:36.356Z,7.70
2019-05-29T03:46:05.296Z,7.70
2019-05-29T03:48:34.518Z,7.70
2019-05-29T03:51:03.542Z,7.60
2019-05-29T03:53:33.748Z,7.60
2019-05-29T03:56:02.957Z,7.60
2019-05-29T03:58:33.236Z,7.60
2019-05-29T04:01:02.739Z,7.70
2019-05-29T04:03:33.246Z,7.60
2019-05-29T04:06:02.317Z,7.60
2019-05-29T04:08:31.570Z,7.60
2019-05-29T04:11:01.524Z,7.70
2019-05-29T04:13:31.856Z,7.70
2019-05-29T04:16:02.426Z,7.70
2019-05-29T04:18:33.916Z,7.70
2019-05-29T04:23:36.005Z,7.80
2019-05-29T04:28:34.848Z,7.90
2019-05-29T04:31:04.050Z,8.00
2019-05-29T04:33:34.777Z,8.00
2019-05-29T04:36:03.445Z,8.00
2019-05-29T04:38:33.792Z,8.00
2019-05-29T04:41:02.724Z,8.20
2019-05-29T04:43:33.230Z,8.30
2019-05-29T04:46:02.137Z,8.40
2019-05-29T04:48:32.036Z,8.40
2019-05-29T04:51:01.412Z,8.50
2019-05-29T04:53:31.345Z,8.60
2019-05-29T04:56:00.404Z,8.70
2019-05-29T04:58:29.161Z,9.00
2019-05-29T05:00:59.469Z,9.40
2019-05-29T05:03:29.076Z,9.50
2019-05-29T05:05:58.027Z,10.10
2019-05-29T05:08:26.785Z,10.20
2019-05-29T05:10:55.696Z,10.60
2019-05-29T05:13:24.890Z,11.00
2019-05-29T05:15:55.730Z,11.20
2019-05-29T05:18:24.482Z,11.40
2019-05-29T05:20:53.248Z,11.30
2019-05-29T05:23:22.019Z,11.40
2019-05-29T05:25:50.853Z,11.30
2019-05-29T05:28:19.625Z,11.30
2019-05-29T05:30:48.628Z,11.40
2019-05-29T05:33:17.469Z,11.40
2019-05-29T05:35:46.245Z,11.50
2019-05-29T05:38:15.017Z,11.60
2019-05-29T05:40:43.780Z,11.70
2019-05-29T05:43:23.624Z,12.00
2019-05-29T05:45:43.092Z,12.10
2019-05-29T05:48:11.947Z,12.20
2019-05-29T05:50:41.460Z,12.40
2019-05-29T05:53:10.429Z,12.30
2019-05-29T05:55:39.749Z,12.30
2019-05-29T05:58:08.632Z,12.30
2019-05-29T06:03:07.056Z,12.50
2019-05-29T06:05:36.145Z,12.80
2019-05-29T06:20:29.761Z,17.30
2019-05-29T06:22:58.843Z,19.20
2019-05-29T06:27:56.213Z,21.50
2019-05-29T06:30:25.587Z,22.50
2019-05-29T06:32:54.353Z,23.10
2019-05-29T06:35:23.185Z,23.30
2019-05-29T06:40:31.948Z,24.50
2019-05-29T06:43:00.749Z,24.30
2019-05-29T06:47:59.478Z,23.70
2019-05-29T06:50:28.225Z,24.70
2019-05-29T06:52:56.974Z,25.00
2019-05-29T06:55:25.885Z,25.00
2019-05-29T06:57:54.731Z,26.30
2019-05-29T07:00:34.965Z,25.70
2019-05-29T07:02:54.629Z,26.40
2019-05-29T07:05:23.641Z,26.30
2019-05-29T07:07:52.429Z,27.20
2019-05-29T07:10:21.637Z,26.90
2019-05-29T07:15:19.197Z,27.10
2019-05-29T07:17:47.940Z,27.30
2019-05-29T07:20:16.847Z,27.90
2019-05-29T07:22:47.015Z,27.80
2019-05-29T07:25:16.257Z,27.30
2019-05-29T07:27:45.197Z,26.80
2019-05-29T07:30:14.292Z,26.40
2019-05-29T07:37:42.109Z,25.80
2019-05-29T07:40:11.525Z,25.30
2019-05-29T07:42:45.565Z,25.30
2019-05-29T07:45:12.865Z,25.40
2019-05-29T07:47:42.598Z,26.40
2019-05-29T07:52:40.928Z,27.30
2019-05-29T07:55:10.228Z,27.80
2019-05-29T07:57:40.681Z,27.30
2019-05-29T08:00:10.765Z,27.30
2019-05-29T08:02:41.205Z,27.30
2019-05-29T08:05:11.170Z,28.00
2019-05-29T08:07:41.277Z,27.30
2019-05-29T08:10:12.024Z,27.50
2019-05-29T08:12:45.644Z,27.90
2019-05-29T08:15:11.346Z,27.60
2019-05-29T08:22:37.689Z,25.50
2019-05-29T08:25:06.854Z,26.10
2019-05-29T08:27:35.770Z,25.80
2019-05-29T08:30:06.279Z,25.70
2019-05-29T08:32:35.117Z,25.60
2019-05-29T08:35:04.225Z,26.00
2019-05-29T08:37:32.981Z,26.20
2019-05-29T08:42:30.338Z,26.40
2019-05-29T08:44:59.128Z,25.60
2019-05-29T08:50:16.426Z,24.60
2019-05-29T08:54:55.200Z,23.30
2019-05-29T09:04:51.902Z,20.20
2019-05-29T09:12:18.486Z,19.80
2019-05-29T09:22:14.945Z,18.90
2019-05-29T09:24:43.870Z,19.10
2019-05-29T09:27:12.976Z,19.10
2019-05-29T09:29:42.724Z,19.10
2019-05-29T09:32:11.561Z,19.10
2019-05-29T09:34:40.384Z,19.00
2019-05-29T09:42:05.910Z,18.30
2019-05-29T09:44:39.342Z,18.50
2019-05-29T09:47:05.701Z,18.60
2019-05-29T09:49:34.466Z,18.80
2019-05-29T09:52:04.138Z,18.90
2019-05-29T09:54:33.526Z,18.40
2019-05-29T09:57:02.824Z,18.40
2019-05-29T09:59:31.821Z,18.50
2019-05-29T10:02:05.921Z,18.40
2019-05-29T10:04:31.376Z,18.30
2019-05-29T10:07:02.149Z,18.50
2019-05-29T10:09:30.806Z,18.60
2019-05-29T10:12:03.571Z,18.60
2019-05-29T10:14:30.366Z,18.60
2019-05-29T10:17:04.391Z,18.70
2019-05-29T10:19:30.266Z,18.70
2019-05-29T10:24:32.283Z,18.70
2019-05-29T10:27:01.527Z,18.80
2019-05-29T10:29:36.558Z,18.80
2019-05-29T10:32:05.457Z,18.60
2019-05-29T10:34:34.294Z,18.60
2019-05-29T10:37:03.058Z,18.80
2019-05-29T10:39:31.858Z,18.70
2019-05-29T10:42:00.612Z,18.60
2019-05-29T10:46:57.672Z,18.40
2019-05-29T10:49:26.473Z,18.50
2019-05-29T10:52:12.035Z,18.60
2019-05-29T10:54:25.761Z,18.60
2019-05-29T10:56:55.635Z,18.70
2019-05-29T10:59:24.466Z,18.80
2019-05-29T11:01:53.785Z,18.70
2019-05-29T11:04:22.719Z,18.90
2019-05-29T11:06:52.572Z,18.80
2019-05-29T11:09:22.134Z,19.10
2019-05-29T11:11:53.021Z,19.10
2019-05-29T11:14:21.616Z,19.10
2019-05-29T11:16:50.892Z,19.00
2019-05-29T11:19:19.733Z,19.00
2019-05-29T11:21:49.687Z,19.00
2019-05-29T11:24:18.722Z,18.90
2019-05-29T11:26:48.349Z,19.00
2019-05-29T11:29:17.211Z,19.10
2019-05-29T11:31:46.036Z,19.10
2019-05-29T11:34:14.796Z,19.20
2019-05-29T11:36:43.564Z,19.50
2019-05-29T11:39:12.565Z,19.50
2019-05-29T11:41:41.312Z,19.60
2019-05-29T11:44:10.142Z,19.10
2019-05-29T11:46:38.926Z,19.10
2019-05-29T11:49:08.004Z,19.00
2019-05-29T11:51:36.763Z,18.90
2019-05-29T11:54:05.759Z,18.90
2019-05-29T11:56:34.521Z,19.00
2019-05-29T11:59:03.419Z,19.00
2019-05-29T12:01:49.159Z,19.20
2019-05-29T12:04:22.992Z,19.40
2019-05-29T12:06:33.427Z,19.40
2019-05-29T12:09:02.181Z,19.40
2019-05-29T12:11:30.946Z,19.50
2019-05-29T12:14:00.483Z,19.50
2019-05-29T12:16:29.978Z,19.50
2019-05-29T12:18:59.816Z,19.40
2019-05-29T12:21:28.890Z,19.60
2019-05-29T12:23:58.257Z,19.60
2019-05-29T12:26:27.094Z,19.50
2019-05-29T12:29:03.659Z,19.50
2019-05-29T12:31:26.408Z,19.60
2019-05-29T12:33:55.170Z,19.60
2019-05-29T12:36:24.016Z,19.60
2019-05-29T12:38:53.490Z,19.50
2019-05-29T12:41:22.495Z,19.50
2019-05-29T12:43:51.253Z,19.60
2019-05-29T12:46:20.193Z,19.80
2019-05-29T12:48:49.266Z,19.80
2019-05-29T12:51:18.376Z,19.80
2019-05-29T12:53:47.366Z,19.70
2019-05-29T12:56:16.116Z,19.60
2019-05-29T12:58:45.142Z,19.50
2019-05-29T13:01:13.906Z,19.60
2019-05-29T13:03:45.222Z,19.80
2019-05-29T13:06:13.232Z,19.40
2019-05-29T13:08:42.000Z,19.40
2019-05-29T13:11:10.754Z,19.40
2019-05-29T13:13:39.513Z,19.60
2019-05-29T13:16:09.993Z,19.90
2019-05-29T13:18:38.748Z,19.90
2019-05-29T13:21:07.585Z,19.90
2019-05-29T13:23:44.820Z,19.90
2019-05-29T13:26:06.908Z,19.80
2019-05-29T13:28:35.670Z,19.80
2019-05-29T13:31:05.161Z,19.80
2019-05-29T13:33:35.386Z,19.80
2019-05-29T13:36:04.558Z,19.90
2019-05-29T13:38:33.957Z,19.90
2019-05-29T13:43:31.509Z,19.70
2019-05-29T13:46:00.511Z,19.50
2019-05-29T13:48:29.352Z,19.50
2019-05-29T13:53:28.124Z,19.60
2019-05-29T13:55:57.714Z,19.60
2019-05-29T13:58:26.669Z,19.60
2019-05-29T14:00:55.461Z,19.60
2019-05-29T14:03:24.296Z,19.50
2019-05-29T14:05:53.175Z,19.60
2019-05-29T14:08:23.037Z,19.70
2019-05-29T14:10:51.789Z,19.80
2019-05-29T14:13:20.561Z,19.70
2019-05-29T14:18:19.720Z,19.70
2019-05-29T14:20:48.591Z,19.70
2019-05-29T14:23:17.340Z,19.80
2019-05-29T14:25:46.172Z,19.80
2019-05-29T14:28:15.272Z,19.70
2019-05-29T14:30:44.336Z,19.80
2019-05-29T14:33:15.147Z,19.90
2019-05-29T14:35:44.007Z,19.90
2019-05-29T14:38:15.087Z,20.00
2019-05-29T14:40:43.329Z,19.90
2019-05-29T14:43:15.434Z,20.10
2019-05-29T14:48:13.110Z,20.20
2019-05-29T14:50:41.757Z,20.10
2019-05-29T14:53:11.401Z,20.00
2019-05-29T14:55:40.792Z,20.10
2019-05-29T14:58:09.810Z,20.10
2019-05-29T15:00:41.822Z,20.10
2019-05-29T15:03:11.517Z,20.20
2019-05-29T15:05:40.412Z,20.30
2019-05-29T15:08:10.071Z,20.30
2019-05-29T15:10:39.116Z,20.30
2019-05-29T15:15:37.994Z,20.40
2019-05-29T15:20:35.937Z,20.30
2019-05-29T15:23:05.179Z,20.30
2019-05-29T15:25:34.014Z,20.40
2019-05-29T15:28:02.768Z,20.40
2019-05-29T15:30:31.534Z,20.20
2019-05-29T15:33:00.298Z,20.30
2019-05-29T15:35:29.130Z,20.40
2019-05-29T15:37:57.885Z,20.40
2019-05-29T15:40:26.668Z,20.40
2019-05-29T15:42:55.517Z,20.20
2019-05-29T15:45:24.469Z,20.20
2019-05-29T15:47:53.220Z,20.30
2019-05-29T15:50:22.169Z,20.30
2019-05-29T15:52:50.969Z,20.40
2019-05-29T15:55:31.143Z,20.30
2019-05-29T15:57:50.422Z,20.10
2019-05-29T16:00:19.431Z,20.10
2019-05-29T16:02:49.613Z,20.10
2019-05-29T16:05:20.310Z,20.00
2019-05-29T16:07:49.080Z,20.00
2019-05-29T16:10:20.536Z,20.00
2019-05-29T16:12:48.729Z,20.10
2019-05-29T16:15:19.269Z,20.00
2019-05-29T16:17:48.372Z,19.80
2019-05-29T16:20:18.630Z,19.80
2019-05-29T16:22:47.691Z,19.80
2019-05-29T16:25:18.982Z,19.80
2019-05-29T16:27:47.927Z,19.80
2019-05-29T16:30:17.747Z,19.70
2019-05-29T16:32:46.877Z,19.80
2019-05-29T16:35:17.194Z,19.70
2019-05-29T16:37:46.033Z,19.60
2019-05-29T16:40:18.031Z,19.60
2019-05-29T16:42:47.086Z,19.60
2019-05-29T16:45:18.534Z,19.50
2019-05-29T16:47:47.622Z,19.50
2019-05-29T16:50:17.510Z,19.50
2019-05-29T16:52:46.765Z,19.50
2019-05-29T16:55:53.974Z,19.50
2019-05-29T16:58:19.747Z,19.40
2019-05-29T17:00:49.704Z,19.40
2019-05-29T17:03:19.736Z,19.40
2019-05-29T17:05:49.609Z,19.40
2019-05-29T17:08:20.320Z,19.40
2019-05-29T17:10:50.197Z,19.30
2019-05-29T17:13:20.642Z,19.30
2019-05-29T17:15:50.651Z,19.30
2019-05-29T17:18:20.811Z,19.30
2019-05-29T17:20:50.872Z,19.30
2019-05-29T17:23:20.954Z,19.20
2019-05-29T17:25:50.925Z,19.20
2019-05-29T17:28:24.487Z,19.10
2019-05-29T17:33:21.569Z,19.10
2019-05-29T17:35:51.369Z,18.90
2019-05-29T17:38:21.304Z,18.70
2019-05-29T17:40:51.255Z,18.60
2019-05-29T17:43:24.707Z,18.50
2019-05-29T17:45:52.956Z,18.30
2019-05-29T17:48:23.896Z,18.10
2019-05-29T17:50:53.952Z,17.80
2019-05-29T17:53:24.239Z,17.60
2019-05-29T17:55:54.229Z,17.50
2019-05-29T18:00:55.307Z,17.30
2019-05-29T18:05:54.415Z,17.00
2019-05-29T18:08:25.044Z,16.90
2019-05-29T18:10:55.172Z,16.80
2019-05-29T18:13:25.349Z,16.70
2019-05-29T18:15:55.173Z,16.60
2019-05-29T18:18:25.755Z,16.50
2019-05-29T18:20:55.640Z,16.50
2019-05-29T18:23:26.205Z,16.40
2019-05-29T18:25:56.209Z,16.20
2019-05-29T18:28:26.176Z,16.10
2019-05-29T18:30:56.024Z,16.00
2019-05-29T18:33:26.801Z,15.90
2019-05-29T18:35:56.706Z,15.70
2019-05-29T18:38:26.664Z,15.60
2019-05-29T18:40:56.840Z,15.50
2019-05-29T18:43:26.689Z,15.30
2019-05-29T18:45:56.645Z,15.20
2019-05-29T18:48:27.285Z,15.20
2019-05-29T18:50:57.179Z,15.00
2019-05-29T18:53:27.087Z,15.00
2019-05-29T18:55:57.177Z,14.90
2019-05-29T18:58:30.510Z,14.80
2019-05-29T19:01:00.700Z,14.70
2019-05-29T19:03:32.607Z,14.50
2019-05-29T19:06:02.265Z,14.40
2019-05-29T19:08:32.213Z,14.30
2019-05-29T19:11:02.122Z,14.20
2019-05-29T19:13:35.093Z,14.00
2019-05-29T19:18:34.617Z,13.90
2019-05-29T19:21:04.679Z,13.90
2019-05-29T19:23:34.587Z,13.90
2019-05-29T19:26:04.541Z,13.80
2019-05-29T19:28:34.423Z,13.80
2019-05-29T19:31:07.313Z,13.70
2019-05-29T19:33:37.180Z,13.60
2019-05-29T19:38:36.228Z,13.40
2019-05-29T19:41:06.101Z,13.30
2019-05-29T19:43:35.986Z,13.20
2019-05-29T19:46:05.947Z,13.20
2019-05-29T19:48:35.749Z,13.10
2019-05-29T19:51:07.005Z,13.10
2019-05-29T19:53:37.938Z,13.00
2019-05-29T19:56:07.927Z,13.10
2019-05-29T19:58:37.766Z,13.10
2019-05-29T20:01:07.606Z,13.10
2019-05-29T20:08:39.085Z,13.10
2019-05-29T20:18:36.183Z,13.00
2019-05-29T20:21:06.209Z,12.90
2019-05-29T20:26:07.353Z,12.80
2019-05-29T20:33:44.976Z,12.60
2019-05-29T20:36:14.816Z,12.40
2019-05-29T20:38:44.771Z,12.40
2019-05-29T20:43:43.885Z,12.30
2019-05-29T20:48:43.110Z,12.10
2019-05-29T20:51:12.909Z,12.00
2019-05-29T20:53:42.750Z,12.00
2019-05-29T20:58:41.983Z,11.90
2019-05-29T21:01:11.867Z,11.90
2019-05-29T21:06:12.375Z,11.70
2019-05-29T21:08:43.356Z,11.60
2019-05-29T21:16:13.607Z,11.50
2019-05-29T21:21:13.982Z,11.50
2019-05-29T21:23:44.685Z,11.40
2019-05-29T21:26:14.858Z,11.50
2019-05-29T21:28:50.104Z,11.40
2019-05-29T21:31:16.347Z,11.40
2019-05-29T21:33:49.172Z,11.40
2019-05-29T21:36:18.193Z,11.40
2019-05-29T21:38:48.336Z,11.40
2019-05-29T21:41:18.177Z,11.40
2019-05-29T21:43:48.097Z,11.40
2019-05-29T21:46:17.990Z,11.40
2019-05-29T21:48:47.878Z,11.50
2019-05-29T21:51:17.801Z,11.50
2019-05-29T21:56:17.458Z,11.60
2019-05-29T21:58:59.900Z,11.60
2019-05-29T22:01:22.721Z,11.70
2019-05-29T22:06:22.373Z,11.70
2019-05-29T22:08:52.522Z,11.60
2019-05-29T22:11:22.554Z,11.60
2019-05-29T22:13:52.432Z,11.50
2019-05-29T22:16:22.397Z,11.50
2019-05-29T22:18:52.826Z,11.50
2019-05-29T22:21:22.757Z,11.40
2019-05-29T22:23:53.053Z,11.40
2019-05-29T22:26:22.934Z,11.40
2019-05-29T22:28:53.118Z,11.30
2019-05-29T22:31:23.205Z,11.30
2019-05-29T22:33:53.458Z,11.30
2019-05-29T22:36:23.316Z,11.30
2019-05-29T22:38:53.450Z,11.20
2019-05-29T22:41:23.427Z,11.30
2019-05-29T22:43:53.708Z,11.20
2019-05-29T22:46:23.524Z,11.10
2019-05-29T22:48:53.699Z,11.10
2019-05-29T22:51:23.696Z,11.10
2019-05-29T22:53:54.008Z,11.10
2019-05-29T22:56:24.034Z,11.10
2019-05-29T22:58:54.046Z,11.10
2019-05-29T23:01:23.987Z,11.00
2019-05-29T23:03:54.261Z,11.00
2019-05-29T23:06:24.057Z,10.90
2019-05-29T23:08:54.213Z,11.00
2019-05-29T23:11:24.181Z,11.00
2019-05-29T23:16:23.977Z,10.90
2019-05-29T23:23:53.432Z,10.80
2019-05-29T23:26:23.344Z,10.70
2019-05-29T23:28:54.714Z,10.70
2019-05-29T23:31:24.657Z,10.70
2019-05-29T23:33:54.779Z,10.70
2019-05-29T23:36:24.719Z,10.70
2019-05-29T23:38:55.081Z,10.70
2019-05-29T23:43:55.310Z,10.60
2019-05-29T23:46:25.385Z,10.50
2019-05-29T23:48:55.462Z,10.50
2019-05-29T23:51:25.392Z,10.50
2019-05-29T23:53:55.690Z,10.50
2019-05-29T23:56:25.553Z,10.50
2019-05-29T23:58:55.678Z,10.50
